sensor_id;sensor_type;location;lat;lon;timestamp;pressure;altitude;pressure_sealevel;temperature
48003;BMP280;33768;48.578;11.574;2023-03-03T00:01:40;96488.88;;;0.82
48003;BMP280;33768;48.578;11.574;2023-03-03T00:04:44;96504.53;;;0.84
48003;BMP280;33768;48.578;11.574;2023-03-03T00:07:49;96497.94;;;0.85
48003;BMP280;33768;48.578;11.574;2023-03-03T00:10:53;96498.69;;;0.85
48003;BMP280;33768;48.578;11.574;2023-03-03T00:13:58;96497.66;;;0.83
48003;BMP280;33768;48.578;11.574;2023-03-03T00:17:21;96497.50;;;0.86
48003;BMP280;33768;48.578;11.574;2023-03-03T00:20:30;96493.59;;;0.87
48003;BMP280;33768;48.578;11.574;2023-03-03T00:23:37;96494.53;;;0.84
48003;BMP280;33768;48.578;11.574;2023-03-03T00:26:48;96498.69;;;0.85
48003;BMP280;33768;48.578;11.574;2023-03-03T00:29:58;96491.66;;;0.88
48003;BMP280;33768;48.578;11.574;2023-03-03T00:33:18;96494.63;;;0.90
48003;BMP280;33768;48.578;11.574;2023-03-03T00:36:38;96484.06;;;0.86
48003;BMP280;33768;48.578;11.574;2023-03-03T00:39:42;96492.28;;;0.83
48003;BMP280;33768;48.578;11.574;2023-03-03T00:42:49;96487.09;;;0.79
48003;BMP280;33768;48.578;11.574;2023-03-03T00:45:55;96490.25;;;0.78
48003;BMP280;33768;48.578;11.574;2023-03-03T00:48:59;96499.06;;;0.78
48003;BMP280;33768;48.578;11.574;2023-03-03T00:52:14;96492.94;;;0.78
48003;BMP280;33768;48.578;11.574;2023-03-03T00:55:19;96499.22;;;0.75
48003;BMP280;33768;48.578;11.574;2023-03-03T00:58:24;96500.88;;;0.72
48003;BMP280;33768;48.578;11.574;2023-03-03T01:01:29;96491.06;;;0.69
48003;BMP280;33768;48.578;11.574;2023-03-03T01:04:32;96491.78;;;0.70
48003;BMP280;33768;48.578;11.574;2023-03-03T01:07:36;96495.13;;;0.65
48003;BMP280;33768;48.578;11.574;2023-03-03T01:10:45;96495.31;;;0.62
48003;BMP280;33768;48.578;11.574;2023-03-03T01:13:53;96504.09;;;0.62
48003;BMP280;33768;48.578;11.574;2023-03-03T01:16:57;96496.78;;;0.62
48003;BMP280;33768;48.578;11.574;2023-03-03T01:20:02;96495.75;;;0.60
48003;BMP280;33768;48.578;11.574;2023-03-03T01:23:07;96495.75;;;0.60
48003;BMP280;33768;48.578;11.574;2023-03-03T01:26:11;96507.69;;;0.59
48003;BMP280;33768;48.578;11.574;2023-03-03T01:29:16;96505.00;;;0.59
48003;BMP280;33768;48.578;11.574;2023-03-03T01:32:20;96496.38;;;0.55
48003;BMP280;33768;48.578;11.574;2023-03-03T01:35:24;96493.13;;;0.51
48003;BMP280;33768;48.578;11.574;2023-03-03T01:38:29;96505.06;;;0.50
48003;BMP280;33768;48.578;11.574;2023-03-03T01:41:34;96501.19;;;0.51
48003;BMP280;33768;48.578;11.574;2023-03-03T01:44:38;96510.00;;;0.52
48003;BMP280;33768;48.578;11.574;2023-03-03T01:47:50;96504.81;;;0.48
48003;BMP280;33768;48.578;11.574;2023-03-03T01:51:00;96503.00;;;0.45
48003;BMP280;33768;48.578;11.574;2023-03-03T01:54:15;96492.00;;;0.43
48003;BMP280;33768;48.578;11.574;2023-03-03T01:57:25;96485.59;;;0.41
48003;BMP280;33768;48.578;11.574;2023-03-03T02:00:33;96489.94;;;0.38
48003;BMP280;33768;48.578;11.574;2023-03-03T02:03:39;96487.25;;;0.38
48003;BMP280;33768;48.578;11.574;2023-03-03T02:06:48;96485.75;;;0.37
48003;BMP280;33768;48.578;11.574;2023-03-03T02:10:10;96492.03;;;0.34
48003;BMP280;33768;48.578;11.574;2023-03-03T02:13:15;96493.41;;;0.30
48003;BMP280;33768;48.578;11.574;2023-03-03T02:16:19;96504.94;;;0.22
48003;BMP280;33768;48.578;11.574;2023-03-03T02:19:46;96505.75;;;0.13
48003;BMP280;33768;48.578;11.574;2023-03-03T02:23:04;96498.03;;;0.06
48003;BMP280;33768;48.578;11.574;2023-03-03T02:26:30;96498.63;;;0.01
48003;BMP280;33768;48.578;11.574;2023-03-03T02:29:40;96494.00;;;0.02
48003;BMP280;33768;48.578;11.574;2023-03-03T02:32:45;96484.47;;;0.01
48003;BMP280;33768;48.578;11.574;2023-03-03T02:35:51;96485.50;;;0.03
48003;BMP280;33768;48.578;11.574;2023-03-03T02:39:02;96483.56;;;0.04
48003;BMP280;33768;48.578;11.574;2023-03-03T02:42:20;96474.16;;;0.08
48003;BMP280;33768;48.578;11.574;2023-03-03T02:45:30;96475.63;;;0.09
48003;BMP280;33768;48.578;11.574;2023-03-03T02:48:35;96479.94;;;0.16
48003;BMP280;33768;48.578;11.574;2023-03-03T02:51:40;96487.06;;;0.19
48003;BMP280;33768;48.578;11.574;2023-03-03T02:54:45;96481.69;;;0.19
48003;BMP280;33768;48.578;11.574;2023-03-03T02:57:49;96474.16;;;0.08
48003;BMP280;33768;48.578;11.574;2023-03-03T03:00:53;96481.75;;;0.10
48003;BMP280;33768;48.578;11.574;2023-03-03T03:04:00;96484.28;;;0.13
48003;BMP280;33768;48.578;11.574;2023-03-03T03:07:05;96478.31;;;0.09
48003;BMP280;33768;48.578;11.574;2023-03-03T03:10:11;96487.09;;;0.10
48003;BMP280;33768;48.578;11.574;2023-03-03T03:13:17;96488.91;;;0.13
48003;BMP280;33768;48.578;11.574;2023-03-03T03:16:22;96492.16;;;0.17
48003;BMP280;33768;48.578;11.574;2023-03-03T03:19:26;96494.53;;;0.15
48003;BMP280;33768;48.578;11.574;2023-03-03T03:22:31;96498.44;;;0.14
48003;BMP280;33768;48.578;11.574;2023-03-03T03:25:36;96505.41;;;0.20
48003;BMP280;33768;48.578;11.574;2023-03-03T03:28:51;96502.78;;;0.34
48003;BMP280;33768;48.578;11.574;2023-03-03T03:31:56;96500.78;;;0.44
48003;BMP280;33768;48.578;11.574;2023-03-03T03:35:00;96498.22;;;0.49
48003;BMP280;33768;48.578;11.574;2023-03-03T03:38:04;96505.66;;;0.54
48003;BMP280;33768;48.578;11.574;2023-03-03T03:41:10;96495.47;;;0.58
48003;BMP280;33768;48.578;11.574;2023-03-03T03:44:15;96501.13;;;0.60
48003;BMP280;33768;48.578;11.574;2023-03-03T03:47:19;96493.63;;;0.64
48003;BMP280;33768;48.578;11.574;2023-03-03T03:50:24;96492.81;;;0.72
48003;BMP280;33768;48.578;11.574;2023-03-03T03:53:28;96497.22;;;0.84
48003;BMP280;33768;48.578;11.574;2023-03-03T03:56:32;96503.63;;;0.87
48003;BMP280;33768;48.578;11.574;2023-03-03T03:59:38;96504.47;;;0.93
48003;BMP280;33768;48.578;11.574;2023-03-03T04:02:42;96505.03;;;0.96
48003;BMP280;33768;48.578;11.574;2023-03-03T04:05:51;96506.78;;;0.99
48003;BMP280;33768;48.578;11.574;2023-03-03T04:08:56;96510.78;;;1.04
48003;BMP280;33768;48.578;11.574;2023-03-03T04:12:02;96518.03;;;1.12
48003;BMP280;33768;48.578;11.574;2023-03-03T04:15:09;96502.94;;;1.15
48003;BMP280;33768;48.578;11.574;2023-03-03T04:18:15;96510.81;;;1.18
48003;BMP280;33768;48.578;11.574;2023-03-03T04:21:20;96508.69;;;1.22
48003;BMP280;33768;48.578;11.574;2023-03-03T04:24:24;96515.81;;;1.25
48003;BMP280;33768;48.578;11.574;2023-03-03T04:27:34;96508.69;;;1.22
48003;BMP280;33768;48.578;11.574;2023-03-03T04:30:39;96509.25;;;1.26
48003;BMP280;33768;48.578;11.574;2023-03-03T04:33:43;96508.78;;;1.27
48003;BMP280;33768;48.578;11.574;2023-03-03T04:36:47;96505.63;;;1.29
48003;BMP280;33768;48.578;11.574;2023-03-03T04:39:51;96505.91;;;1.31
48003;BMP280;33768;48.578;11.574;2023-03-03T04:42:55;96497.09;;;1.30
48003;BMP280;33768;48.578;11.574;2023-03-03T04:46:01;96507.75;;;1.25
48003;BMP280;33768;48.578;11.574;2023-03-03T04:49:05;96513.13;;;1.25
48003;BMP280;33768;48.578;11.574;2023-03-03T04:52:12;96506.28;;;1.24
48003;BMP280;33768;48.578;11.574;2023-03-03T04:55:16;96508.69;;;1.22
48003;BMP280;33768;48.578;11.574;2023-03-03T04:58:21;96515.72;;;1.20
48003;BMP280;33768;48.578;11.574;2023-03-03T05:01:27;96508.88;;;1.19
48003;BMP280;33768;48.578;11.574;2023-03-03T05:04:32;96516.31;;;1.24
48003;BMP280;33768;48.578;11.574;2023-03-03T05:07:37;96509.72;;;1.24
48003;BMP280;33768;48.578;11.574;2023-03-03T05:10:41;96527.31;;;1.25
48003;BMP280;33768;48.578;11.574;2023-03-03T05:13:45;96522.41;;;1.24
48003;BMP280;33768;48.578;11.574;2023-03-03T05:16:49;96519.00;;;1.24
48003;BMP280;33768;48.578;11.574;2023-03-03T05:19:54;96528.97;;;1.23
48003;BMP280;33768;48.578;11.574;2023-03-03T05:23:00;96521.50;;;1.27
48003;BMP280;33768;48.578;11.574;2023-03-03T05:26:05;96516.41;;;1.29
48003;BMP280;33768;48.578;11.574;2023-03-03T05:29:09;96518.69;;;1.36
48003;BMP280;33768;48.578;11.574;2023-03-03T05:32:13;96521.69;;;1.38
48003;BMP280;33768;48.578;11.574;2023-03-03T05:35:18;96523.19;;;1.39
48003;BMP280;33768;48.578;11.574;2023-03-03T05:38:24;96530.31;;;1.42
48003;BMP280;33768;48.578;11.574;2023-03-03T05:41:29;96529.28;;;1.39
48003;BMP280;33768;48.578;11.574;2023-03-03T05:44:33;96537.06;;;1.37
48003;BMP280;33768;48.578;11.574;2023-03-03T05:47:37;96533.47;;;1.40
48003;BMP280;33768;48.578;11.574;2023-03-03T05:50:42;96535.06;;;1.47
48003;BMP280;33768;48.578;11.574;2023-03-03T05:53:46;96540.97;;;1.51
48003;BMP280;33768;48.578;11.574;2023-03-03T05:56:50;96546.94;;;1.55
48003;BMP280;33768;48.578;11.574;2023-03-03T05:59:54;96545.72;;;1.55
48003;BMP280;33768;48.578;11.574;2023-03-03T06:02:58;96543.75;;;1.56
48003;BMP280;33768;48.578;11.574;2023-03-03T06:06:03;96541.63;;;1.60
48003;BMP280;33768;48.578;11.574;2023-03-03T06:09:07;96545.53;;;1.59
48003;BMP280;33768;48.578;11.574;2023-03-03T06:12:11;96551.38;;;1.57
48003;BMP280;33768;48.578;11.574;2023-03-03T06:15:15;96556.81;;;1.49
48003;BMP280;33768;48.578;11.574;2023-03-03T06:18:19;96556.09;;;1.48
48003;BMP280;33768;48.578;11.574;2023-03-03T06:21:23;96565.28;;;1.56
48003;BMP280;33768;48.578;11.574;2023-03-03T06:24:27;96563.06;;;1.55
48003;BMP280;33768;48.578;11.574;2023-03-03T06:27:34;96566.69;;;1.52
48003;BMP280;33768;48.578;11.574;2023-03-03T06:30:39;96581.16;;;1.54
48003;BMP280;33768;48.578;11.574;2023-03-03T06:33:43;96588.47;;;1.54
48003;BMP280;33768;48.578;11.574;2023-03-03T06:36:47;96581.72;;;1.58
48003;BMP280;33768;48.578;11.574;2023-03-03T06:39:51;96582.09;;;1.65
48003;BMP280;33768;48.578;11.574;2023-03-03T06:42:55;96586.53;;;1.68
48003;BMP280;33768;48.578;11.574;2023-03-03T06:46:00;96593.03;;;1.76
48003;BMP280;33768;48.578;11.574;2023-03-03T06:49:03;96593.59;;;1.80
48003;BMP280;33768;48.578;11.574;2023-03-03T06:52:12;96603.38;;;1.92
48003;BMP280;33768;48.578;11.574;2023-03-03T06:55:22;96598.88;;;2.03
48003;BMP280;33768;48.578;11.574;2023-03-03T06:58:26;96591.75;;;2.15
48003;BMP280;33768;48.578;11.574;2023-03-03T07:01:35;96589.78;;;2.29
48003;BMP280;33768;48.578;11.574;2023-03-03T07:04:39;96593.72;;;2.48
48003;BMP280;33768;48.578;11.574;2023-03-03T07:07:44;96584.00;;;2.70
48003;BMP280;33768;48.578;11.574;2023-03-03T07:10:51;96599.72;;;2.91
48003;BMP280;33768;48.578;11.574;2023-03-03T07:13:56;96599.47;;;3.09
48003;BMP280;33768;48.578;11.574;2023-03-03T07:17:03;96597.66;;;3.20
48003;BMP280;33768;48.578;11.574;2023-03-03T07:23:35;96614.91;;;3.48
48003;BMP280;33768;48.578;11.574;2023-03-03T07:26:45;96622.50;;;3.69
48003;BMP280;33768;48.578;11.574;2023-03-03T07:29:51;96616.03;;;3.86
48003;BMP280;33768;48.578;11.574;2023-03-03T07:32:58;96617.16;;;4.00
48003;BMP280;33768;48.578;11.574;2023-03-03T07:36:03;96611.31;;;4.06
48003;BMP280;33768;48.578;11.574;2023-03-03T07:39:33;96628.72;;;4.31
48003;BMP280;33768;48.578;11.574;2023-03-03T07:42:39;96622.50;;;4.50
48003;BMP280;33768;48.578;11.574;2023-03-03T07:59:24;96638.41;;;4.78
48003;BMP280;33768;48.578;11.574;2023-03-03T08:03:28;96643.59;;;5.23
48003;BMP280;33768;48.578;11.574;2023-03-03T08:09:46;96649.56;;;5.95
48003;BMP280;33768;48.578;11.574;2023-03-03T08:12:50;96650.88;;;6.38
48003;BMP280;33768;48.578;11.574;2023-03-03T08:19:16;96642.06;;;7.47
48003;BMP280;33768;48.578;11.574;2023-03-03T08:22:32;96639.44;;;7.87
48003;BMP280;33768;48.578;11.574;2023-03-03T08:25:37;96640.41;;;7.90
48003;BMP280;33768;48.578;11.574;2023-03-03T08:28:41;96648.16;;;7.70
48003;BMP280;33768;48.578;11.574;2023-03-03T08:31:46;96651.56;;;7.86
48003;BMP280;33768;48.578;11.574;2023-03-03T08:34:50;96648.94;;;7.65
48003;BMP280;33768;48.578;11.574;2023-03-03T08:37:54;96646.41;;;7.78
48003;BMP280;33768;48.578;11.574;2023-03-03T08:40:59;96648.69;;;8.13
48003;BMP280;33768;48.578;11.574;2023-03-03T08:44:06;96648.66;;;8.24
48003;BMP280;33768;48.578;11.574;2023-03-03T08:47:10;96646.53;;;8.01
48003;BMP280;33768;48.578;11.574;2023-03-03T08:50:16;96652.75;;;7.96
48003;BMP280;33768;48.578;11.574;2023-03-03T08:53:20;96654.53;;;7.83
48003;BMP280;33768;48.578;11.574;2023-03-03T08:56:25;96651.38;;;7.74
48003;BMP280;33768;48.578;11.574;2023-03-03T08:59:35;96664.38;;;7.91
48003;BMP280;33768;48.578;11.574;2023-03-03T09:02:42;96660.59;;;8.05
48003;BMP280;33768;48.578;11.574;2023-03-03T09:05:46;96658.31;;;8.20
48003;BMP280;33768;48.578;11.574;2023-03-03T09:09:31;96663.03;;;8.19
48003;BMP280;33768;48.578;11.574;2023-03-03T09:12:39;96663.59;;;8.02
48003;BMP280;33768;48.578;11.574;2023-03-03T09:15:44;96668.50;;;8.09
48003;BMP280;33768;48.578;11.574;2023-03-03T09:18:49;96678.97;;;7.88
48003;BMP280;33768;48.578;11.574;2023-03-03T09:21:55;96686.91;;;7.86
48003;BMP280;33768;48.578;11.574;2023-03-03T09:25:01;96682.91;;;7.93
48003;BMP280;33768;48.578;11.574;2023-03-03T09:28:25;96680.00;;;7.75
48003;BMP280;33768;48.578;11.574;2023-03-03T09:31:38;96684.69;;;7.79
48003;BMP280;33768;48.578;11.574;2023-03-03T09:34:42;96687.78;;;8.11
48003;BMP280;33768;48.578;11.574;2023-03-03T09:37:49;96685.91;;;8.35
48003;BMP280;33768;48.578;11.574;2023-03-03T09:48:10;96689.50;;;8.53
48003;BMP280;33768;48.578;11.574;2023-03-03T10:04:43;96694.84;;;8.99
48003;BMP280;33768;48.578;11.574;2023-03-03T10:15:15;96699.44;;;8.80
48003;BMP280;33768;48.578;11.574;2023-03-03T10:18:27;96694.78;;;8.75
48003;BMP280;33768;48.578;11.574;2023-03-03T10:21:54;96696.41;;;8.89
48003;BMP280;33768;48.578;11.574;2023-03-03T10:25:23;96700.00;;;9.02
48003;BMP280;33768;48.578;11.574;2023-03-03T10:28:49;96697.38;;;9.20
48003;BMP280;33768;48.578;11.574;2023-03-03T10:32:38;96693.97;;;9.38
48003;BMP280;33768;48.578;11.574;2023-03-03T10:36:11;96699.13;;;9.41
48003;BMP280;33768;48.578;11.574;2023-03-03T10:43:22;96699.78;;;10.67
48003;BMP280;33768;48.578;11.574;2023-03-03T10:47:39;96690.69;;;11.91
48003;BMP280;33768;48.578;11.574;2023-03-03T11:01:25;96676.97;;;13.71
48003;BMP280;33768;48.578;11.574;2023-03-03T11:07:55;96675.56;;;13.49
48003;BMP280;33768;48.578;11.574;2023-03-03T11:11:06;96674.47;;;13.52
48003;BMP280;33768;48.578;11.574;2023-03-03T11:17:53;96688.88;;;13.25
48003;BMP280;33768;48.578;11.574;2023-03-03T11:21:34;96690.38;;;12.53
48003;BMP280;33768;48.578;11.574;2023-03-03T11:24:50;96689.41;;;12.05
48003;BMP280;33768;48.578;11.574;2023-03-03T11:34:49;96693.22;;;11.63
48003;BMP280;33768;48.578;11.574;2023-03-03T11:38:23;96682.28;;;11.63
48003;BMP280;33768;48.578;11.574;2023-03-03T11:44:59;96664.78;;;11.28
48003;BMP280;33768;48.578;11.574;2023-03-03T11:48:20;96662.66;;;11.21
48003;BMP280;33768;48.578;11.574;2023-03-03T11:54:55;96654.38;;;11.39
48003;BMP280;33768;48.578;11.574;2023-03-03T11:58:26;96652.19;;;11.63
48003;BMP280;33768;48.578;11.574;2023-03-03T12:01:42;96650.72;;;11.75
48003;BMP280;33768;48.578;11.574;2023-03-03T12:05:05;96641.88;;;11.95
48003;BMP280;33768;48.578;11.574;2023-03-03T12:12:13;96647.94;;;12.47
48003;BMP280;33768;48.578;11.574;2023-03-03T12:15:40;96641.75;;;13.27
48003;BMP280;33768;48.578;11.574;2023-03-03T12:23:54;96642.63;;;13.77
48003;BMP280;33768;48.578;11.574;2023-03-03T12:27:29;96647.00;;;13.73
48003;BMP280;33768;48.578;11.574;2023-03-03T12:34:37;96641.66;;;14.37
48003;BMP280;33768;48.578;11.574;2023-03-03T12:42:00;96639.16;;;14.69
48003;BMP280;33768;48.578;11.574;2023-03-03T12:48:52;96631.41;;;14.45
48003;BMP280;33768;48.578;11.574;2023-03-03T13:00:22;96616.84;;;14.79
48003;BMP280;33768;48.578;11.574;2023-03-03T13:21:58;96606.81;;;14.17
48003;BMP280;33768;48.578;11.574;2023-03-03T13:29:02;96611.31;;;14.57
48003;BMP280;33768;48.578;11.574;2023-03-03T13:32:39;96608.75;;;14.59
48003;BMP280;33768;48.578;11.574;2023-03-03T13:35:59;96598.13;;;14.63
48003;BMP280;33768;48.578;11.574;2023-03-03T13:45:53;96592.13;;;15.09
48003;BMP280;33768;48.578;11.574;2023-03-03T13:49:38;96589.16;;;15.36
48003;BMP280;33768;48.578;11.574;2023-03-03T13:53:16;96589.53;;;15.40
48003;BMP280;33768;48.578;11.574;2023-03-03T14:03:33;96587.22;;;15.91
48003;BMP280;33768;48.578;11.574;2023-03-03T14:06:50;96587.53;;;15.33
48003;BMP280;33768;48.578;11.574;2023-03-03T14:17:07;96585.09;;;13.57
48003;BMP280;33768;48.578;11.574;2023-03-03T14:20:29;96589.25;;;13.43
48003;BMP280;33768;48.578;11.574;2023-03-03T14:26:53;96579.28;;;13.33
48003;BMP280;33768;48.578;11.574;2023-03-03T14:29:58;96581.19;;;12.90
48003;BMP280;33768;48.578;11.574;2023-03-03T14:36:13;96576.97;;;12.49
48003;BMP280;33768;48.578;11.574;2023-03-03T14:39:32;96570.63;;;12.33
48003;BMP280;33768;48.578;11.574;2023-03-03T14:49:29;96570.13;;;11.89
48003;BMP280;33768;48.578;11.574;2023-03-03T14:52:34;96567.56;;;12.04
48003;BMP280;33768;48.578;11.574;2023-03-03T14:55:42;96570.03;;;11.94
48003;BMP280;33768;48.578;11.574;2023-03-03T14:58:47;96570.38;;;11.78
48003;BMP280;33768;48.578;11.574;2023-03-03T15:08:35;96570.81;;;11.69
48003;BMP280;33768;48.578;11.574;2023-03-03T15:11:39;96556.28;;;11.61
48003;BMP280;33768;48.578;11.574;2023-03-03T15:14:46;96562.84;;;11.46
48003;BMP280;33768;48.578;11.574;2023-03-03T15:17:56;96559.69;;;11.29
48003;BMP280;33768;48.578;11.574;2023-03-03T15:21:12;96557.03;;;11.23
48003;BMP280;33768;48.578;11.574;2023-03-03T15:24:25;96563.88;;;11.17
48003;BMP280;33768;48.578;11.574;2023-03-03T15:28:00;96573.53;;;11.05
48003;BMP280;33768;48.578;11.574;2023-03-03T15:34:41;96568.34;;;10.63
48003;BMP280;33768;48.578;11.574;2023-03-03T15:37:53;96570.84;;;10.62
48003;BMP280;33768;48.578;11.574;2023-03-03T15:41:25;96558.41;;;10.48
48003;BMP280;33768;48.578;11.574;2023-03-03T15:45:03;96559.88;;;10.36
48003;BMP280;33768;48.578;11.574;2023-03-03T15:59:13;96551.91;;;9.70
48003;BMP280;33768;48.578;11.574;2023-03-03T16:02:27;96562.19;;;9.59
48003;BMP280;33768;48.578;11.574;2023-03-03T16:09:02;96559.00;;;9.37
48003;BMP280;33768;48.578;11.574;2023-03-03T16:12:27;96558.16;;;9.24
48003;BMP280;33768;48.578;11.574;2023-03-03T16:15:56;96569.25;;;9.07
48003;BMP280;33768;48.578;11.574;2023-03-03T16:22:45;96565.28;;;8.85
48003;BMP280;33768;48.578;11.574;2023-03-03T16:26:58;96575.81;;;8.70
48003;BMP280;33768;48.578;11.574;2023-03-03T16:30:02;96578.25;;;8.50
48003;BMP280;33768;48.578;11.574;2023-03-03T16:39:59;96598.34;;;8.07
48003;BMP280;33768;48.578;11.574;2023-03-03T16:46:38;96595.78;;;7.75
48003;BMP280;33768;48.578;11.574;2023-03-03T16:53:40;96603.59;;;7.44
48003;BMP280;33768;48.578;11.574;2023-03-03T17:00:27;96615.31;;;7.06
48003;BMP280;33768;48.578;11.574;2023-03-03T17:07:11;96621.28;;;6.72
48003;BMP280;33768;48.578;11.574;2023-03-03T17:13:57;96630.44;;;6.48
48003;BMP280;33768;48.578;11.574;2023-03-03T17:17:18;96627.94;;;6.33
48003;BMP280;33768;48.578;11.574;2023-03-03T17:20:58;96628.91;;;6.20
48003;BMP280;33768;48.578;11.574;2023-03-03T17:27:42;96639.47;;;6.01
48003;BMP280;33768;48.578;11.574;2023-03-03T17:31:15;96649.78;;;5.87
48003;BMP280;33768;48.578;11.574;2023-03-03T17:38:05;96646.25;;;5.64
48003;BMP280;33768;48.578;11.574;2023-03-03T17:51:50;96665.06;;;5.32
48003;BMP280;33768;48.578;11.574;2023-03-03T17:58:42;96673.78;;;5.11
48003;BMP280;33768;48.578;11.574;2023-03-03T18:26:04;96690.03;;;3.94
48003;BMP280;33768;48.578;11.574;2023-03-03T18:29:25;96696.16;;;3.95
48003;BMP280;33768;48.578;11.574;2023-03-03T18:32:41;96697.50;;;3.85
48003;BMP280;33768;48.578;11.574;2023-03-03T18:35:45;96701.34;;;3.73
48003;BMP280;33768;48.578;11.574;2023-03-03T18:38:50;96711.97;;;3.62
48003;BMP280;33768;48.578;11.574;2023-03-03T18:42:08;96710.16;;;3.54
48003;BMP280;33768;48.578;11.574;2023-03-03T18:49:07;96712.25;;;3.44
48003;BMP280;33768;48.578;11.574;2023-03-03T18:52:20;96720.34;;;3.44
48003;BMP280;33768;48.578;11.574;2023-03-03T18:55:25;96710.03;;;3.43
48003;BMP280;33768;48.578;11.574;2023-03-03T18:58:37;96719.31;;;3.42
48003;BMP280;33768;48.578;11.574;2023-03-03T19:01:43;96718.03;;;3.38
48003;BMP280;33768;48.578;11.574;2023-03-03T19:05:16;96714.34;;;3.35
48003;BMP280;33768;48.578;11.574;2023-03-03T19:08:26;96725.03;;;3.30
48003;BMP280;33768;48.578;11.574;2023-03-03T19:11:50;96728.69;;;3.27
48003;BMP280;33768;48.578;11.574;2023-03-03T19:14:55;96728.16;;;3.23
48003;BMP280;33768;48.578;11.574;2023-03-03T19:18:22;96737.66;;;3.18
48003;BMP280;33768;48.578;11.574;2023-03-03T19:21:31;96720.66;;;3.12
48003;BMP280;33768;48.578;11.574;2023-03-03T19:24:36;96729.88;;;3.06
48003;BMP280;33768;48.578;11.574;2023-03-03T19:27:55;96723.16;;;3.02
48003;BMP280;33768;48.578;11.574;2023-03-03T19:31:57;96719.66;;;2.96
48003;BMP280;33768;48.578;11.574;2023-03-03T19:38:33;96744.03;;;2.87
48003;BMP280;33768;48.578;11.574;2023-03-03T19:41:59;96746.91;;;2.83
48003;BMP280;33768;48.578;11.574;2023-03-03T19:45:23;96739.84;;;2.72
48003;BMP280;33768;48.578;11.574;2023-03-03T19:48:39;96737.56;;;2.65
48003;BMP280;33768;48.578;11.574;2023-03-03T19:52:17;96741.94;;;2.62
48003;BMP280;33768;48.578;11.574;2023-03-03T20:02:01;96753.53;;;2.54
48003;BMP280;33768;48.578;11.574;2023-03-03T20:08:35;96739.22;;;2.48
48003;BMP280;33768;48.578;11.574;2023-03-03T20:15:17;96746.66;;;2.39
48003;BMP280;33768;48.578;11.574;2023-03-03T20:18:45;96737.84;;;2.38
48003;BMP280;33768;48.578;11.574;2023-03-03T20:22:08;96740.88;;;2.31
48003;BMP280;33768;48.578;11.574;2023-03-03T20:25:39;96749.81;;;2.23
48003;BMP280;33768;48.578;11.574;2023-03-03T20:29:00;96747.66;;;2.13
48003;BMP280;33768;48.578;11.574;2023-03-03T20:35:43;96748.28;;;2.08
48003;BMP280;33768;48.578;11.574;2023-03-03T20:59:31;96763.66;;;1.93
48003;BMP280;33768;48.578;11.574;2023-03-03T21:03:08;96759.94;;;1.90
48003;BMP280;33768;48.578;11.574;2023-03-03T21:06:16;96762.84;;;1.87
48003;BMP280;33768;48.578;11.574;2023-03-03T21:09:35;96767.94;;;1.85
48003;BMP280;33768;48.578;11.574;2023-03-03T21:12:40;96761.97;;;1.81
48003;BMP280;33768;48.578;11.574;2023-03-03T21:15:53;96755.09;;;1.80
48003;BMP280;33768;48.578;11.574;2023-03-03T21:19:08;96769.81;;;1.70
48003;BMP280;33768;48.578;11.574;2023-03-03T21:22:12;96766.72;;;1.63
48003;BMP280;33768;48.578;11.574;2023-03-03T21:28:58;96773.66;;;1.55
48003;BMP280;33768;48.578;11.574;2023-03-03T21:32:07;96772.94;;;1.55
48003;BMP280;33768;48.578;11.574;2023-03-03T21:38:34;96777.16;;;1.47
48003;BMP280;33768;48.578;11.574;2023-03-03T21:41:50;96775.66;;;1.46
48003;BMP280;33768;48.578;11.574;2023-03-03T21:44:55;96779.13;;;1.46
48003;BMP280;33768;48.578;11.574;2023-03-03T21:48:02;96778.34;;;1.46
48003;BMP280;33768;48.578;11.574;2023-03-03T21:51:08;96782.25;;;1.45
48003;BMP280;33768;48.578;11.574;2023-03-03T21:54:12;96778.09;;;1.44
48003;BMP280;33768;48.578;11.574;2023-03-03T21:57:17;96795.41;;;1.43
48003;BMP280;33768;48.578;11.574;2023-03-03T22:00:21;96777.78;;;1.42
48003;BMP280;33768;48.578;11.574;2023-03-03T22:03:26;96781.66;;;1.41
48003;BMP280;33768;48.578;11.574;2023-03-03T22:06:30;96797.06;;;1.40
48003;BMP280;33768;48.578;11.574;2023-03-03T22:09:35;96784.97;;;1.36
48003;BMP280;33768;48.578;11.574;2023-03-03T22:12:40;96777.38;;;1.34
48003;BMP280;33768;48.578;11.574;2023-03-03T22:15:45;96774.41;;;1.32
48003;BMP280;33768;48.578;11.574;2023-03-03T22:18:49;96786.06;;;1.29
48003;BMP280;33768;48.578;11.574;2023-03-03T22:21:53;96781.88;;;1.28
48003;BMP280;33768;48.578;11.574;2023-03-03T22:24:57;96784.75;;;1.25
48003;BMP280;33768;48.578;11.574;2023-03-03T22:28:02;96778.81;;;1.21
48003;BMP280;33768;48.578;11.574;2023-03-03T22:31:06;96790.44;;;1.18
48003;BMP280;33768;48.578;11.574;2023-03-03T22:34:11;96776.88;;;1.13
48003;BMP280;33768;48.578;11.574;2023-03-03T22:37:15;96773.75;;;1.14
48003;BMP280;33768;48.578;11.574;2023-03-03T22:40:19;96779.56;;;1.13
48003;BMP280;33768;48.578;11.574;2023-03-03T22:43:23;96774.38;;;1.09
48003;BMP280;33768;48.578;11.574;2023-03-03T22:46:28;96784.09;;;1.07
48003;BMP280;33768;48.578;11.574;2023-03-03T22:49:33;96770.53;;;1.01
48003;BMP280;33768;48.578;11.574;2023-03-03T22:52:37;96777.56;;;0.99
48003;BMP280;33768;48.578;11.574;2023-03-03T22:55:41;96787.88;;;0.92
48003;BMP280;33768;48.578;11.574;2023-03-03T22:58:45;96782.53;;;0.83
48003;BMP280;33768;48.578;11.574;2023-03-03T23:01:50;96783.91;;;0.78
48003;BMP280;33768;48.578;11.574;2023-03-03T23:04:54;96781.22;;;0.78
48003;BMP280;33768;48.578;11.574;2023-03-03T23:08:06;96784.63;;;0.79
48003;BMP280;33768;48.578;11.574;2023-03-03T23:11:11;96785.81;;;0.78
48003;BMP280;33768;48.578;11.574;2023-03-03T23:14:15;96772.56;;;0.74
48003;BMP280;33768;48.578;11.574;2023-03-03T23:17:20;96774.94;;;0.72
48003;BMP280;33768;48.578;11.574;2023-03-03T23:20:27;96775.69;;;0.73
48003;BMP280;33768;48.578;11.574;2023-03-03T23:23:32;96776.28;;;0.68
48003;BMP280;33768;48.578;11.574;2023-03-03T23:26:37;96778.72;;;0.66
48003;BMP280;33768;48.578;11.574;2023-03-03T23:29:41;96771.25;;;0.61
48003;BMP280;33768;48.578;11.574;2023-03-03T23:32:46;96774.84;;;0.58
48003;BMP280;33768;48.578;11.574;2023-03-03T23:35:51;96781.09;;;0.55
48003;BMP280;33768;48.578;11.574;2023-03-03T23:38:56;96790.38;;;0.54